Time;durP1;ratioP1;P1;durP2;ratioP2;P2;SDS_P1;SDS_P2;PMS_P1;PMS_P2;Temp;Humidity;BMP_temperature;BMP_pressure;BME280_temperature;BME280_humidity;BME280_pressure;Samples;Min_cycle;Max_cycle;Signal;HPM_P1;HPM_P2
2023/10/22 00:00:38;;;;;;;3.47;1.42;;;;;;;21.79;57.93;100130.38;4985909;28;20386;-59
2023/10/22 00:03:06;;;;;;;3.42;1.50;;;;;;;21.78;57.81;100129.53;4992086;28;20046;-59
2023/10/22 00:05:33;;;;;;;3.35;1.30;;;;;;;21.79;57.71;100130.38;4992290;28;20048;-59
2023/10/22 00:08:01;;;;;;;4.50;1.48;;;;;;;21.78;57.73;100131.38;4990690;28;20053;-59
2023/10/22 00:10:28;;;;;;;4.00;1.60;;;;;;;21.78;57.85;100140.31;5021342;28;20412;-59
2023/10/22 00:12:56;;;;;;;2.60;1.38;;;;;;;21.78;57.78;100144.88;4991319;28;20046;-59
2023/10/22 00:15:27;;;;;;;3.05;1.00;;;;;;;21.78;57.63;100152.94;4993896;28;20050;-59
2023/10/22 00:17:54;;;;;;;1.95;1.17;;;;;;;21.79;57.80;100160.00;4989830;28;20054;-59
2023/10/22 00:20:22;;;;;;;2.45;1.00;;;;;;;21.78;57.73;100158.34;4991139;28;20042;-58
2023/10/22 00:22:49;;;;;;;3.13;1.50;;;;;;;21.77;57.69;100160.19;4993551;28;20065;-59
2023/10/22 00:25:17;;;;;;;2.35;1.25;;;;;;;21.76;57.68;100160.38;4993468;28;20050;-59
2023/10/22 00:27:44;;;;;;;2.10;1.33;;;;;;;21.76;57.65;100163.91;4993170;28;20047;-59
2023/10/22 00:30:12;;;;;;;2.13;1.10;;;;;;;21.77;57.70;100167.44;4990253;28;20417;-59
2023/10/22 00:32:39;;;;;;;3.55;1.23;;;;;;;21.76;57.62;100168.44;4993210;28;20054;-59
2023/10/22 00:35:07;;;;;;;2.78;1.30;;;;;;;21.77;57.63;100170.13;4993656;28;20046;-59
2023/10/22 00:37:34;;;;;;;2.42;1.33;;;;;;;21.76;57.58;100163.06;4992906;28;20489;-59
2023/10/22 00:40:03;;;;;;;2.17;1.17;;;;;;;21.76;57.57;100157.66;4991260;28;20054;-59
2023/10/22 00:42:30;;;;;;;2.20;1.20;;;;;;;21.76;57.62;100168.44;4993234;28;20046;-59
2023/10/22 00:44:57;;;;;;;2.78;1.00;;;;;;;21.74;57.52;100165.91;4993500;28;20046;-59
2023/10/22 00:47:25;;;;;;;3.95;1.98;;;;;;;21.73;57.29;100167.75;4991064;28;20054;-59
2023/10/22 00:49:53;;;;;;;2.90;1.17;;;;;;;21.75;57.24;100185.59;4989240;28;20068;-59
2023/10/22 00:52:21;;;;;;;2.60;1.27;;;;;;;21.75;57.26;100182.91;4993443;28;20046;-59
2023/10/22 00:54:49;;;;;;;2.63;1.15;;;;;;;21.73;57.16;100177.69;4992902;28;20062;-59
2023/10/22 00:57:17;;;;;;;3.63;1.20;;;;;;;21.72;57.11;100182.25;4985424;28;20047;-59
2023/10/22 00:59:44;;;;;;;2.53;1.60;;;;;;;21.72;57.16;100195.72;4992892;28;20058;-59
2023/10/22 01:02:12;;;;;;;3.22;1.50;;;;;;;21.73;57.13;100192.00;4994839;28;20054;-59
2023/10/22 01:04:39;;;;;;;2.00;1.10;;;;;;;21.72;57.16;100186.78;4992891;28;20053;-59
2023/10/22 01:07:07;;;;;;;2.67;1.35;;;;;;;21.72;57.19;100193.00;4991874;28;20046;-59
2023/10/22 01:09:35;;;;;;;2.70;1.08;;;;;;;21.72;57.00;100200.25;4992864;28;20054;-59
2023/10/22 01:12:04;;;;;;;2.47;1.15;;;;;;;21.72;57.17;100190.31;4987107;28;20051;-59
2023/10/22 01:14:32;;;;;;;3.20;1.10;;;;;;;21.71;57.12;100196.72;4992329;28;20073;-59
2023/10/22 01:17:00;;;;;;;2.17;1.10;;;;;;;21.72;57.18;100193.00;4992608;28;20050;-59
2023/10/22 01:19:28;;;;;;;2.83;1.20;;;;;;;21.72;57.15;100197.56;5003706;28;20051;-59
2023/10/22 01:21:57;;;;;;;1.75;0.95;;;;;;;21.71;56.95;100196.72;4992744;28;20066;-59
2023/10/22 01:24:25;;;;;;;2.33;1.17;;;;;;;21.70;56.98;100202.25;4994362;28;20065;-59
2023/10/22 01:26:52;;;;;;;1.92;0.90;;;;;;;21.71;57.16;100204.81;4989061;28;20057;-59
2023/10/22 01:29:20;;;;;;;2.30;1.20;;;;;;;21.71;57.17;100215.59;4991472;28;20050;-59
2023/10/22 01:31:47;;;;;;;2.78;1.30;;;;;;;21.71;57.37;100217.41;4992555;28;20093;-59
2023/10/22 01:34:14;;;;;;;2.95;1.48;;;;;;;21.70;57.32;100213.03;4992264;28;20058;-59
2023/10/22 01:36:42;;;;;;;3.75;1.40;;;;;;;21.70;57.04;100211.19;4992357;28;20058;-59
2023/10/22 01:39:14;;;;;;;3.50;0.90;;;;;;;21.70;56.94;100213.03;4990910;28;20053;-59
2023/10/22 01:41:42;;;;;;;;;;;;;;;21.68;56.84;100215.91;4992800;28;20085;-59
2023/10/22 01:44:10;;;;;;;2.30;1.08;;;;;;;21.69;56.78;100214.03;4992371;28;19922;-59
2023/10/22 01:46:37;;;;;;;2.60;1.00;;;;;;;21.69;56.75;100219.44;4991525;28;20503;-59
2023/10/22 01:49:05;;;;;;;2.80;1.17;;;;;;;21.69;56.77;100224.81;4992800;28;21441;-59
2023/10/22 01:51:32;;;;;;;3.10;0.85;;;;;;;21.69;56.81;100228.34;4992482;28;20087;-59
2023/10/22 01:54:01;;;;;;;3.15;1.20;;;;;;;21.69;56.83;100238.28;4991862;28;20054;-59
2023/10/22 01:56:28;;;;;;;2.83;1.08;;;;;;;21.69;56.79;100238.28;4989315;28;20065;-59
2023/10/22 01:58:56;;;;;;;2.90;1.10;;;;;;;21.68;56.76;100228.53;4993576;28;20050;-59
2023/10/22 02:01:25;;;;;;;2.50;1.02;;;;;;;21.68;56.69;100232.06;4993623;28;20394;-59
2023/10/22 02:03:53;;;;;;;2.90;1.42;;;;;;;21.68;56.71;100231.22;4991935;28;20050;-59
2023/10/22 02:06:20;;;;;;;1.90;1.08;;;;;;;21.67;56.71;100232.19;4989998;28;20101;-59
2023/10/22 02:08:47;;;;;;;1.80;1.00;;;;;;;21.68;56.63;100234.75;4990820;28;20061;-59
2023/10/22 02:11:15;;;;;;;2.00;0.88;;;;;;;21.68;56.76;100233.91;4991860;28;20054;-59
2023/10/22 02:13:42;;;;;;;3.70;1.23;;;;;;;21.67;56.72;100240.28;4968140;28;20094;-59
2023/10/22 02:16:10;;;;;;;3.00;1.05;;;;;;;21.67;56.61;100242.97;4990864;28;20394;-59
2023/10/22 02:18:37;;;;;;;2.72;1.48;;;;;;;21.68;56.63;100248.22;4992915;28;20053;-59
2023/10/22 02:21:04;;;;;;;2.63;0.90;;;;;;;21.66;56.81;100233.22;4992152;28;20042;-59
2023/10/22 02:23:32;;;;;;;1.88;0.88;;;;;;;21.66;56.70;100244.00;4991822;28;20058;-59
2023/10/22 02:25:59;;;;;;;1.70;0.90;;;;;;;21.67;56.63;100256.44;4990351;28;20046;-59
2023/10/22 02:28:27;;;;;;;2.08;1.10;;;;;;;21.66;56.65;100258.31;4992694;28;20062;-59
2023/10/22 02:30:55;;;;;;;5.50;1.30;;;;;;;21.66;56.60;100250.22;4991950;28;20062;-59
2023/10/22 02:33:22;;;;;;;2.67;1.25;;;;;;;21.65;56.57;100248.53;4991713;28;20046;-59
2023/10/22 02:35:51;;;;;;;1.67;0.93;;;;;;;21.65;56.65;100245.84;4989884;28;20055;-59
2023/10/22 02:38:18;;;;;;;2.60;1.10;;;;;;;21.65;56.54;100250.41;4991064;28;20150;-59
2023/10/22 02:40:49;;;;;;;1.75;0.85;;;;;;;21.64;56.56;100252.25;4993043;28;20087;-59
2023/10/22 02:43:17;;;;;;;2.65;1.00;;;;;;;21.64;56.52;100249.56;4990377;28;20049;-59
2023/10/22 02:45:54;;;;;;;1.73;0.93;;;;;;;21.64;56.71;100252.25;4989742;28;20073;-59
2023/10/22 02:48:23;;;;;;;2.13;1.25;;;;;;;21.65;56.73;100255.78;4985170;28;20051;-59
2023/10/22 02:50:51;;;;;;;2.28;1.00;;;;;;;21.64;56.64;100254.09;4992365;28;20065;-59
2023/10/22 02:53:18;;;;;;;2.20;1.10;;;;;;;21.64;56.71;100265.72;4985598;28;20054;-59
2023/10/22 02:55:46;;;;;;;2.17;1.00;;;;;;;21.65;56.52;100263.84;4988751;28;20058;-59
2023/10/22 02:58:13;;;;;;;3.65;1.10;;;;;;;21.64;56.85;100271.09;4992953;28;20054;-59
2023/10/22 03:00:41;;;;;;;1.90;1.00;;;;;;;21.64;57.05;100271.09;4992558;28;20114;-59
2023/10/22 03:03:09;;;;;;;2.00;0.90;;;;;;;21.66;57.35;100265.53;4987375;28;20053;-59
2023/10/22 03:05:36;;;;;;;2.55;0.90;;;;;;;21.65;57.25;100263.84;4990731;28;20059;-59
2023/10/22 03:08:04;;;;;;;2.10;1.23;;;;;;;21.65;57.63;100263.84;4991372;28;20049;-59
2023/10/22 03:10:36;;;;;;;1.60;0.90;;;;;;;21.65;57.38;100266.56;4991351;28;20410;-59
2023/10/22 03:13:04;;;;;;;1.65;0.75;;;;;;;21.64;57.38;100268.41;4991490;28;20051;-59
2023/10/22 03:15:33;;;;;;;2.75;1.08;;;;;;;21.65;57.12;100272.78;4981150;28;20051;-59
2023/10/22 03:18:01;;;;;;;2.70;1.02;;;;;;;21.64;56.93;100264.88;4991927;28;20061;-59
2023/10/22 03:20:33;;;;;;;2.60;1.05;;;;;;;21.64;56.83;100268.41;4992747;28;20058;-59
2023/10/22 03:23:03;;;;;;;2.30;0.93;;;;;;;21.64;56.75;100264.88;4989709;28;20058;-59
2023/10/22 03:25:31;;;;;;;2.78;0.90;;;;;;;21.63;56.72;100264.03;4992795;28;20053;-59
2023/10/22 03:27:58;;;;;;;2.10;1.00;;;;;;;21.62;56.64;100281.19;4992859;28;20077;-59
2023/10/22 03:30:26;;;;;;;1.90;1.10;;;;;;;21.64;56.68;100275.66;4990897;28;20047;-59
2023/10/22 03:32:55;;;;;;;3.17;1.00;;;;;;;21.63;56.70;100280.19;4989895;28;20054;-59
2023/10/22 03:35:23;;;;;;;2.10;1.00;;;;;;;21.62;56.77;100289.25;4990556;28;20053;-59
2023/10/22 03:37:50;;;;;;;3.30;1.13;;;;;;;21.63;56.72;100299.06;4991360;28;20057;-59
2023/10/22 03:40:19;;;;;;;2.30;0.85;;;;;;;21.63;56.83;100301.75;4992201;28;20054;-59
2023/10/22 03:42:47;;;;;;;2.65;1.00;;;;;;;21.63;56.71;100298.19;4989174;28;20046;-59
2023/10/22 03:45:15;;;;;;;2.15;0.90;;;;;;;21.62;56.51;100302.72;4988694;28;20050;-59
2023/10/22 03:47:43;;;;;;;1.50;0.85;;;;;;;21.62;56.51;100308.13;4991431;28;20046;-59
2023/10/22 03:50:11;;;;;;;2.53;0.80;;;;;;;21.62;56.44;100309.97;4991279;28;20042;-59
2023/10/22 03:52:38;;;;;;;2.20;1.23;;;;;;;21.62;56.46;100312.66;4987701;28;20050;-59
2023/10/22 03:55:10;;;;;;;3.20;1.20;;;;;;;21.61;56.41;100314.50;5013773;28;20051;-59
2023/10/22 03:57:38;;;;;;;3.97;1.10;;;;;;;21.61;56.44;100310.97;4990750;28;20281;-59
2023/10/22 04:00:07;;;;;;;2.67;1.33;;;;;;;21.61;56.35;100322.59;4990619;28;20046;-59
2023/10/22 04:02:37;;;;;;;2.85;1.05;;;;;;;21.60;56.42;100323.59;4995218;28;20057;-59
2023/10/22 04:05:05;;;;;;;1.20;0.60;;;;;;;21.60;56.36;100320.06;4990700;28;20437;-59
2023/10/22 04:07:33;;;;;;;1.92;0.73;;;;;;;21.60;56.38;100320.06;4990637;28;20089;-59
2023/10/22 04:10:02;;;;;;;1.55;0.77;;;;;;;21.60;56.32;100320.91;4986589;28;20047;-59
2023/10/22 04:12:31;;;;;;;3.17;1.25;;;;;;;21.59;56.41;100321.06;4989423;28;20077;-59
2023/10/22 04:14:59;;;;;;;2.45;1.30;;;;;;;21.59;56.33;100318.34;4989760;28;20043;-59
2023/10/22 04:17:26;;;;;;;2.10;0.90;;;;;;;21.59;56.29;100326.44;4987159;28;20057;-59
2023/10/22 04:19:55;;;;;;;1.73;0.70;;;;;;;21.59;56.27;100345.28;4990910;28;20053;-59
2023/10/22 04:22:22;;;;;;;1.50;0.82;;;;;;;21.59;56.18;100337.22;4989475;28;20066;-59
2023/10/22 04:24:49;;;;;;;2.15;0.90;;;;;;;21.58;56.30;100336.38;4990873;28;20054;-59
2023/10/22 04:27:17;;;;;;;2.17;1.00;;;;;;;21.58;56.28;100330.97;4990775;28;20066;-59
2023/10/22 04:29:46;;;;;;;1.40;0.75;;;;;;;21.58;56.30;100324.75;4991310;28;20043;-59
2023/10/22 04:32:13;;;;;;;1.45;0.70;;;;;;;21.58;56.27;100332.84;4989103;28;20397;-59
2023/10/22 04:34:42;;;;;;;1.40;0.60;;;;;;;21.58;56.25;100339.06;4990932;28;20099;-59
2023/10/22 04:37:11;;;;;;;1.52;0.70;;;;;;;21.57;56.20;100345.47;4991239;28;20057;-59
2023/10/22 04:39:39;;;;;;;2.17;0.90;;;;;;;21.58;56.11;100335.53;4990282;28;20053;-59
2023/10/22 04:42:06;;;;;;;2.50;1.33;;;;;;;21.57;56.07;100329.31;4989338;28;20057;-59
2023/10/22 04:44:33;;;;;;;1.63;0.90;;;;;;;21.57;56.11;100342.78;5004066;28;20051;-59
2023/10/22 04:47:02;;;;;;;1.35;0.57;;;;;;;21.57;56.37;100348.16;4992363;28;20046;-59
2023/10/22 04:49:31;;;;;;;2.35;0.80;;;;;;;21.56;56.38;100346.47;4994297;28;20050;-59
2023/10/22 04:51:59;;;;;;;1.92;0.80;;;;;;;21.55;56.26;100350.16;4993812;28;20046;-59
2023/10/22 04:54:27;;;;;;;1.70;0.75;;;;;;;21.56;56.12;100354.56;4994575;28;20497;-59
2023/10/22 04:56:55;;;;;;;1.88;0.88;;;;;;;21.56;56.13;100354.56;4994739;28;20056;-59
2023/10/22 04:59:22;;;;;;;1.20;0.60;;;;;;;21.56;56.20;100356.41;4993042;28;20050;-59
2023/10/22 05:01:50;;;;;;;2.15;0.95;;;;;;;21.55;56.09;100354.69;4993345;28;20122;-59
2023/10/22 05:04:17;;;;;;;1.75;0.80;;;;;;;21.56;56.10;100356.41;4994357;28;20053;-59
2023/10/22 05:06:44;;;;;;;1.40;0.70;;;;;;;21.56;56.00;100361.78;4993946;28;20046;-59
2023/10/22 05:09:12;;;;;;;2.17;1.02;;;;;;;21.54;56.22;100364.63;4993497;28;20046;-59
2023/10/22 05:11:39;;;;;;;1.75;0.85;;;;;;;21.55;56.39;100355.53;4993764;28;20054;-59
2023/10/22 05:14:07;;;;;;;1.95;0.93;;;;;;;21.56;56.74;100365.34;4994388;28;20043;-59
2023/10/22 05:16:37;;;;;;;1.65;0.80;;;;;;;21.56;56.85;100361.78;4992486;28;20065;-59
2023/10/22 05:19:04;;;;;;;3.20;0.85;;;;;;;21.57;56.84;100372.41;4992102;28;20401;-59
2023/10/22 05:21:32;;;;;;;3.22;0.93;;;;;;;21.57;56.94;100377.78;4993587;28;20054;-59
2023/10/22 05:23:59;;;;;;;1.75;0.75;;;;;;;21.56;56.64;100384.19;4994009;28;20046;-59
2023/10/22 05:26:27;;;;;;;1.58;0.70;;;;;;;21.57;56.43;100387.72;4993908;28;20054;-59
2023/10/22 05:28:55;;;;;;;4.00;1.00;;;;;;;21.56;56.20;100389.56;4992865;28;20504;-59
2023/10/22 05:31:22;;;;;;;1.90;0.85;;;;;;;21.56;56.19;100400.34;4993732;28;20055;-59
2023/10/22 05:33:50;;;;;;;1.65;0.70;;;;;;;21.55;56.25;100393.25;4994334;28;20054;-59
2023/10/22 05:36:19;;;;;;;2.50;0.82;;;;;;;21.55;56.21;100397.78;4993861;28;20046;-59
2023/10/22 05:38:48;;;;;;;2.00;0.65;;;;;;;21.55;56.15;100400.47;4992811;28;20385;-59
2023/10/22 05:41:26;;;;;;;2.38;0.90;;;;;;;21.53;56.06;100395.25;4993618;28;20047;-59
2023/10/22 05:44:00;;;;;;;2.17;0.70;;;;;;;21.53;56.11;100399.81;4993897;28;20050;-59
2023/10/22 05:46:28;;;;;;;2.55;0.70;;;;;;;21.54;56.11;100404.19;5016839;28;20054;-59
2023/10/22 05:48:56;;;;;;;1.25;0.63;;;;;;;21.52;56.07;100408.91;4991833;28;20046;-59
2023/10/22 05:51:23;;;;;;;2.67;1.00;;;;;;;21.53;56.08;100400.66;4993453;28;20061;-59
2023/10/22 05:53:51;;;;;;;2.22;0.65;;;;;;;21.53;56.08;100406.03;4993605;28;20046;-59
2023/10/22 05:56:20;;;;;;;1.70;0.85;;;;;;;21.52;55.97;100396.28;4993097;28;20046;-59
2023/10/22 05:58:48;;;;;;;2.15;0.73;;;;;;;21.52;55.88;100415.13;4991378;28;20099;-59
2023/10/22 06:01:15;;;;;;;2.88;0.95;;;;;;;21.51;55.83;100416.09;4993492;28;20047;-59
2023/10/22 06:03:43;;;;;;;3.97;0.73;;;;;;;21.51;55.84;100415.25;4993161;28;20050;-59
2023/10/22 06:06:21;;;;;;;1.65;0.70;;;;;;;21.52;55.73;100430.44;4992196;28;20043;-59
2023/10/22 06:08:48;;;;;;;2.13;0.88;;;;;;;21.51;55.78;100439.50;4984461;28;20382;-59
2023/10/22 06:11:16;;;;;;;1.70;0.70;;;;;;;21.50;55.68;100443.22;4991924;28;20034;-59
2023/10/22 06:13:43;;;;;;;2.55;0.75;;;;;;;21.50;55.75;100444.06;4992912;28;20051;-59
2023/10/22 06:16:10;;;;;;;1.35;0.68;;;;;;;21.50;55.71;100452.13;4992308;28;20046;-58
2023/10/22 06:18:38;;;;;;;1.42;0.50;;;;;;;21.50;55.74;100452.13;4988842;28;20050;-59
2023/10/22 06:21:12;;;;;;;2.45;0.88;;;;;;;21.50;55.72;100460.22;4992228;28;20054;-59
2023/10/22 06:23:40;;;;;;;2.03;1.10;;;;;;;21.50;55.55;100462.91;4993032;28;20521;-59
2023/10/22 06:26:17;;;;;;;1.88;0.60;;;;;;;21.51;55.42;100461.06;4991751;28;20405;-59
2023/10/22 06:28:44;;;;;;;1.88;0.68;;;;;;;21.51;55.43;100474.53;4993749;28;20508;-59
2023/10/22 06:31:13;;;;;;;2.53;1.15;;;;;;;21.51;55.34;100475.38;4993119;28;20053;-59
2023/10/22 06:33:41;;;;;;;1.85;1.02;;;;;;;21.51;55.33;100488.81;4993173;28;20046;-59
2023/10/22 06:36:20;;;;;;;2.67;1.05;;;;;;;21.51;55.23;100499.59;4991330;28;20054;-59
2023/10/22 06:38:48;;;;;;;1.77;0.80;;;;;;;21.53;55.21;100499.47;4992934;28;20057;-59
2023/10/22 06:41:25;;;;;;;1.58;0.80;;;;;;;21.53;55.40;100503.00;4993164;28;20057;-59
2023/10/22 06:43:53;;;;;;;1.88;0.70;;;;;;;21.52;55.19;100512.09;4988866;28;20054;-59
2023/10/22 06:46:21;;;;;;;2.22;0.60;;;;;;;21.54;55.07;100517.31;4992946;28;20416;-59
2023/10/22 06:48:48;;;;;;;1.75;0.68;;;;;;;21.52;55.12;100520.16;4992866;28;20053;-58
2023/10/22 06:51:16;;;;;;;1.58;0.70;;;;;;;21.53;54.97;100524.56;4988032;28;20145;-58
2023/10/22 06:53:49;;;;;;;1.73;0.70;;;;;;;21.53;54.93;100524.56;4991793;28;20053;-59
2023/10/22 06:56:16;;;;;;;2.23;0.90;;;;;;;21.54;55.01;100533.47;4992717;28;20046;-59
2023/10/22 06:58:47;;;;;;;1.92;0.93;;;;;;;21.53;54.87;100543.41;4992493;28;20046;-59
2023/10/22 07:01:15;;;;;;;2.40;1.00;;;;;;;21.53;54.96;100546.09;4992778;28;20045;-59
2023/10/22 07:03:44;;;;;;;1.88;0.70;;;;;;;21.54;55.03;100547.78;4992747;28;20051;-59
2023/10/22 07:06:13;;;;;;;2.67;0.82;;;;;;;21.53;55.12;100547.94;4992605;28;20057;-59
2023/10/22 07:08:41;;;;;;;2.25;0.90;;;;;;;21.53;54.96;100551.50;4992157;28;20046;-59
2023/10/22 07:11:08;;;;;;;2.17;0.77;;;;;;;21.53;54.99;100551.50;4992657;28;20363;-59
2023/10/22 07:13:36;;;;;;;1.88;0.80;;;;;;;21.53;55.04;100550.66;4991453;28;20440;-59
2023/10/22 07:16:04;;;;;;;2.70;1.20;;;;;;;21.53;54.97;100559.56;4992265;28;20062;-59
2023/10/22 07:18:31;;;;;;;1.30;0.50;;;;;;;21.52;55.09;100563.28;4988543;28;20045;-59
2023/10/22 07:21:00;;;;;;;2.28;1.10;;;;;;;21.53;54.98;100556.03;4992869;28;20400;-59
2023/10/22 07:23:31;;;;;;;2.42;0.90;;;;;;;21.53;54.99;100559.56;4991412;28;20050;-59
2023/10/22 07:25:59;;;;;;;4.43;0.90;;;;;;;21.53;54.96;100561.41;4992600;28;20500;-59
2023/10/22 07:28:26;;;;;;;1.67;0.80;;;;;;;21.54;55.01;100569.34;4993420;28;20066;-59
2023/10/22 07:30:55;;;;;;;2.95;0.90;;;;;;;21.52;55.02;100574.03;4991876;28;20050;-59
2023/10/22 07:33:24;;;;;;;2.38;0.77;;;;;;;21.53;55.20;100573.03;4983614;28;20057;-59
2023/10/22 07:35:56;;;;;;;2.17;0.85;;;;;;;21.53;55.10;100573.03;4992660;28;20097;-59
2023/10/22 07:38:24;;;;;;;2.92;0.98;;;;;;;21.52;55.09;100570.50;4992525;28;20058;-59
2023/10/22 07:40:55;;;;;;;2.20;0.80;;;;;;;21.53;55.14;100573.03;4991806;28;20465;-59
2023/10/22 07:43:26;;;;;;;1.85;0.75;;;;;;;21.52;55.19;100576.72;4992232;28;20049;-59
2023/10/22 07:45:58;;;;;;;2.60;0.93;;;;;;;21.53;55.28;100569.50;4992054;28;20050;-60
2023/10/22 07:48:25;;;;;;;1.85;0.70;;;;;;;21.47;54.35;100579.00;4988948;28;20054;-60
2023/10/22 07:50:53;;;;;;;3.35;0.90;;;;;;;21.42;53.79;100566.00;4991531;28;20401;-61
2023/10/22 07:53:21;;;;;;;2.58;1.10;;;;;;;21.39;53.67;100576.22;4990599;28;20055;-60
2023/10/22 07:55:48;;;;;;;2.58;1.10;;;;;;;21.34;53.40;100575.84;4992251;28;20050;-59
2023/10/22 07:58:16;;;;;;;3.88;1.05;;;;;;;21.31;53.14;100590.44;4992081;28;20042;-59
2023/10/22 08:00:43;;;;;;;3.15;1.10;;;;;;;21.30;53.30;100595.97;4990644;28;20047;-58
2023/10/22 08:03:10;;;;;;;2.78;1.17;;;;;;;21.27;53.66;100590.88;4992185;28;20050;-59
2023/10/22 08:05:38;;;;;;;6.07;1.13;;;;;;;21.24;53.60;100592.03;4992001;28;20416;-58
2023/10/22 08:08:05;;;;;;;3.45;1.10;;;;;;;21.24;53.74;100595.56;4991722;28;20046;-58
2023/10/22 08:10:33;;;;;;;3.78;1.20;;;;;;;21.26;53.85;100595.41;4991547;28;20046;-59
2023/10/22 08:13:00;;;;;;;2.72;1.10;;;;;;;21.28;54.33;100596.13;4991955;28;20050;-60
2023/10/22 08:15:30;;;;;;;4.05;1.25;;;;;;;21.30;54.13;100598.66;4991866;28;20054;-60
2023/10/22 08:17:58;;;;;;;3.17;1.40;;;;;;;21.28;54.06;100600.66;4992093;28;20046;-60
2023/10/22 08:20:25;;;;;;;3.97;1.35;;;;;;;21.29;54.01;100599.66;4985818;28;20393;-59
2023/10/22 08:22:52;;;;;;;2.67;1.05;;;;;;;21.31;54.04;100606.59;4994684;28;20061;-60
2023/10/22 08:25:20;;;;;;;2.97;1.00;;;;;;;21.35;54.25;100615.22;4995801;28;20053;-59
2023/10/22 08:27:48;;;;;;;2.30;0.73;;;;;;;21.39;54.67;100619.31;4996925;28;20058;-60
2023/10/22 08:30:15;;;;;;;2.92;0.82;;;;;;;21.41;54.77;100618.19;4995353;28;20046;-62
2023/10/22 08:32:46;;;;;;;2.47;1.10;;;;;;;21.44;55.01;100615.19;4996206;28;20065;-62
2023/10/22 08:35:17;;;;;;;4.13;1.17;;;;;;;21.50;54.94;100611.03;4995575;28;20050;-62
2023/10/22 08:37:45;;;;;;;4.32;1.17;;;;;;;21.54;55.15;100617.81;4995371;28;20763;-63
2023/10/22 08:40:12;;;;;;;5.95;1.20;;;;;;;21.56;55.16;100623.06;4995691;28;20516;-57
2023/10/22 08:42:40;;;;;;;2.65;0.80;;;;;;;21.57;54.95;100620.22;4995744;28;20050;-59
2023/10/22 08:45:08;;;;;;;3.22;1.30;;;;;;;21.58;55.00;100619.22;4991641;28;20057;-59
2023/10/22 08:47:35;;;;;;;2.90;1.00;;;;;;;21.59;54.99;100623.63;4995571;28;20047;-59
2023/10/22 08:50:03;;;;;;;3.95;1.40;;;;;;;21.60;55.14;100622.63;4995386;28;20053;-59
2023/10/22 08:52:32;;;;;;;4.90;1.38;;;;;;;21.60;54.91;100622.63;4995579;28;20046;-59
2023/10/22 08:54:59;;;;;;;4.07;1.08;;;;;;;21.59;54.67;100609.28;4995480;28;20054;-59
2023/10/22 08:57:28;;;;;;;4.22;1.40;;;;;;;21.59;54.52;100626.31;4991478;28;20555;-59
2023/10/22 08:59:56;;;;;;;3.45;1.20;;;;;;;21.58;54.45;100621.91;4986469;28;20077;-59
2023/10/22 09:02:26;;;;;;;2.92;0.90;;;;;;;21.58;54.45;100615.66;4995424;28;20496;-59
2023/10/22 09:04:55;;;;;;;3.75;1.20;;;;;;;21.59;54.40;100626.31;4994057;28;20409;-59
2023/10/22 09:07:52;;;;;;;2.85;0.88;;;;;;;21.60;54.30;100637.94;4994236;28;20050;-59
2023/10/22 09:10:25;;;;;;;3.33;1.17;;;;;;;21.60;54.27;100633.38;4992705;28;20066;-59
2023/10/22 09:12:53;;;;;;;5.60;1.75;;;;;;;21.61;54.21;100639.63;4989667;28;20042;-59
2023/10/22 09:15:22;;;;;;;3.63;1.02;;;;;;;21.62;54.19;100630.53;4994120;28;20049;-59
2023/10/22 09:18:01;;;;;;;1.95;0.90;;;;;;;21.62;54.39;100639.47;4995085;28;20054;-60
2023/10/22 09:20:36;;;;;;;4.30;1.25;;;;;;;21.63;54.83;100632.22;4994597;28;20046;-61
2023/10/22 09:23:17;;;;;;;3.40;1.30;;;;;;;21.65;54.97;100630.25;4994154;28;20152;-61
2023/10/22 09:25:54;;;;;;;2.53;1.35;;;;;;;21.64;54.89;100626.69;4995062;28;20054;-61
2023/10/22 09:28:24;;;;;;;6.60;1.33;;;;;;;21.68;55.11;100633.47;4995076;28;20054;-63
2023/10/22 09:30:59;;;;;;;4.82;1.33;;;;;;;21.70;54.90;100636.00;4995613;28;20042;-60
2023/10/22 09:33:37;;;;;;;2.75;1.30;;;;;;;21.71;55.00;100635.88;4993888;28;20050;-62
2023/10/22 09:36:11;;;;;;;3.55;1.52;;;;;;;21.69;55.19;100627.09;4991196;28;20496;-63
2023/10/22 09:38:49;;;;;;;4.47;2.00;;;;;;;21.71;55.30;100633.19;4995290;28;20046;-64
2023/10/22 09:41:30;;;;;;;4.75;1.77;;;;;;;21.72;55.18;100632.16;4995229;28;20042;-64
2023/10/22 09:44:00;;;;;;;3.45;2.15;;;;;;;21.73;54.88;100635.72;4988581;28;20097;-64
2023/10/22 09:46:30;;;;;;;3.40;1.70;;;;;;;21.73;54.86;100641.09;4995168;28;20481;-64
2023/10/22 09:49:00;;;;;;;4.05;1.95;;;;;;;21.75;54.77;100635.53;4994854;28;20054;-63
2023/10/22 09:51:30;;;;;;;3.95;2.10;;;;;;;21.75;54.86;100641.78;4994848;28;20469;-63
2023/10/22 09:54:02;;;;;;;5.30;2.10;;;;;;;21.78;55.57;100646.88;4994773;28;20054;-63
2023/10/22 09:56:32;;;;;;;6.47;2.30;;;;;;;21.78;55.37;100648.72;4994398;28;20053;-63
2023/10/22 09:59:03;;;;;;;4.20;2.28;;;;;;;21.77;55.48;100647.88;4994174;28;20057;-63
2023/10/22 10:01:32;;;;;;;6.43;3.15;;;;;;;21.79;55.33;100650.41;4993852;28;20047;-64
2023/10/22 10:04:01;;;;;;;4.70;3.03;;;;;;;21.79;55.14;100653.09;4988735;28;20046;-63
2023/10/22 10:06:30;;;;;;;6.30;3.40;;;;;;;21.79;54.90;100658.50;4993726;28;20043;-64
2023/10/22 10:09:02;;;;;;;7.15;4.72;;;;;;;21.79;54.61;100655.81;4994435;28;20042;-64
2023/10/22 10:11:32;;;;;;;5.85;4.80;;;;;;;21.79;56.54;100658.50;4994672;28;20061;-68
2023/10/22 10:14:33;;;;;;;7.13;5.43;;;;;;;21.78;56.33;100659.50;4994583;28;20054;-68
2023/10/22 10:17:03;;;;;;;5.93;4.50;;;;;;;21.77;55.92;100657.81;4988518;28;20424;-68
2023/10/22 10:19:30;;;;;;;5.82;4.03;;;;;;;21.77;55.40;100655.13;4993592;28;20049;-68
2023/10/22 10:21:58;;;;;;;7.50;4.97;;;;;;;21.76;55.18;100664.22;4982090;28;20054;-67
2023/10/22 10:24:30;;;;;;;6.55;4.60;;;;;;;21.75;54.54;100651.72;4994374;28;20047;-67
2023/10/22 10:26:57;;;;;;;6.28;4.15;;;;;;;21.71;54.04;100654.75;4993955;28;20050;-67
2023/10/22 10:29:30;;;;;;;6.25;4.53;;;;;;;21.67;53.06;100661.44;4994149;28;20050;-68
2023/10/22 10:32:15;;;;;;;4.53;3.55;;;;;;;21.63;52.46;100651.94;4994378;28;20053;-68
2023/10/22 10:34:46;;;;;;;8.40;3.78;;;;;;;21.62;52.09;100654.78;4995044;28;20050;-58
2023/10/22 10:37:15;;;;;;;4.32;3.67;;;;;;;21.61;52.24;100653.94;4993928;28;20055;-58
2023/10/22 10:39:44;;;;;;;5.55;4.28;;;;;;;21.60;52.19;100654.94;4994121;28;20070;-62
2023/10/22 10:42:36;;;;;;;5.40;4.13;;;;;;;21.60;51.99;100651.41;4994052;28;20050;-62
2023/10/22 10:45:07;;;;;;;9.30;4.43;;;;;;;21.60;51.39;100660.31;4988859;28;20046;-60
2023/10/22 10:47:36;;;;;;;5.20;3.88;;;;;;;21.60;51.17;100654.09;4993600;28;20050;-60
2023/10/22 10:50:06;;;;;;;8.00;4.57;;;;;;;21.60;51.02;100654.09;4984780;28;20081;-58
2023/10/22 10:52:34;;;;;;;6.30;4.65;;;;;;;21.61;50.63;100648.53;4993860;28;20038;-58
2023/10/22 10:55:07;;;;;;;6.30;4.72;;;;;;;21.60;50.49;100644.16;4993387;28;20046;-57
2023/10/22 10:57:38;;;;;;;6.05;3.88;;;;;;;21.60;50.61;100649.56;4990611;28;20649;-58
2023/10/22 11:00:19;;;;;;;8.40;4.93;;;;;;;21.60;50.74;100641.47;4994021;28;20042;-59
2023/10/22 11:02:51;;;;;;;6.78;5.18;;;;;;;21.62;50.46;100638.63;4994202;28;20046;-61
2023/10/22 11:05:37;;;;;;;6.88;5.30;;;;;;;21.63;50.08;100634.91;4993995;28;20050;-62
2023/10/22 11:08:12;;;;;;;7.10;5.65;;;;;;;21.61;50.08;100632.38;4987596;28;20050;-62
2023/10/22 11:10:40;;;;;;;6.32;5.20;;;;;;;21.62;50.16;100649.38;4993142;28;20054;-58
2023/10/22 11:13:08;;;;;;;6.78;4.82;;;;;;;21.62;50.05;100646.69;4993811;28;20046;-59
2023/10/22 11:15:37;;;;;;;6.13;4.70;;;;;;;21.61;50.02;100640.47;4993230;28;20413;-58
2023/10/22 11:18:07;;;;;;;7.25;4.57;;;;;;;21.62;50.04;100641.31;4993265;28;20061;-59
2023/10/22 11:20:35;;;;;;;8.23;4.53;;;;;;;21.62;50.17;100642.16;4992658;28;20054;-58
2023/10/22 11:23:03;;;;;;;5.18;4.47;;;;;;;21.63;50.07;100640.31;4982405;28;20114;-59
2023/10/22 11:25:31;;;;;;;5.28;3.72;;;;;;;21.63;50.20;100634.91;4980311;28;20047;-60
2023/10/22 11:27:58;;;;;;;5.43;3.70;;;;;;;21.64;50.46;100634.78;4985350;28;20046;-58
2023/10/22 11:30:40;;;;;;;6.22;4.57;;;;;;;21.65;50.77;100633.78;4991588;28;20057;-64
2023/10/22 11:33:11;;;;;;;6.90;4.88;;;;;;;21.66;50.92;100638.16;4982023;28;20053;-64